Time;durP1;ratioP1;P1;durP2;ratioP2;P2;SDS_P1;SDS_P2;PMS_P1;PMS_P2;Temp;Humidity;BMP_temperature;BMP_pressure;BME280_temperature;BME280_humidity;BME280_pressure;Samples;Min_cycle;Max_cycle;Signal;HPM_P1;HPM_P2
2023/11/28 00:00:11;;;;;;;2.20;2.10;;;;;;;;;;6258133;28;20291;-71
2023/11/28 00:03:15;;;;;;;1.80;1.80;;;;;;;;;;6258100;28;20296;-69
2023/11/28 00:06:19;;;;;;;2.10;2.00;;;;;;;;;;6258121;28;20293;-70
2023/11/28 00:09:23;;;;;;;3.10;2.37;;;;;;;;;;6250134;28;20304;-71
2023/11/28 00:12:28;;;;;;;2.03;2.03;;;;;;;;;;6265325;28;20299;-70
2023/11/28 00:15:34;;;;;;;2.17;2.07;;;;;;;;;;6266118;28;20532;-69
2023/11/28 00:18:39;;;;;;;1.87;1.80;;;;;;;;;;6258365;28;20306;-69
2023/11/28 00:21:43;;;;;;;3.23;1.80;;;;;;;;;;6274090;28;20288;-69
2023/11/28 00:24:50;;;;;;;1.90;1.90;;;;;;;;;;6282358;28;20323;-70
2023/11/28 00:27:54;;;;;;;2.03;2.03;;;;;;;;;;6281865;28;20313;-70
2023/11/28 00:30:59;;;;;;;1.93;1.93;;;;;;;;;;6282498;28;20285;-69
2023/11/28 00:34:04;;;;;;;1.87;1.77;;;;;;;;;;6278850;28;20301;-69
2023/11/28 00:37:08;;;;;;;2.20;2.10;;;;;;;;;;6280734;28;20610;-69
2023/11/28 00:40:13;;;;;;;2.40;2.30;;;;;;;;;;6282364;28;20330;-68
2023/11/28 00:43:17;;;;;;;2.10;2.00;;;;;;;;;;6280636;28;20301;-70
2023/11/28 00:46:23;;;;;;;1.90;1.90;;;;;;;;;;6281690;28;20297;-70
2023/11/28 00:49:27;;;;;;;2.00;2.00;;;;;;;;;;6265893;28;20338;-68
2023/11/28 00:52:30;;;;;;;2.07;2.07;;;;;;;;;;6240982;28;20306;-69
2023/11/28 00:55:34;;;;;;;1.70;1.70;;;;;;;;;;6232562;28;20451;-69
2023/11/28 00:58:38;;;;;;;1.90;1.90;;;;;;;;;;6231290;28;20286;-69
2023/11/28 01:01:44;;;;;;;1.80;1.80;;;;;;;;;;6240195;28;20290;-69
2023/11/28 01:04:49;;;;;;;1.93;1.93;;;;;;;;;;6257089;28;20298;-68
2023/11/28 01:07:52;;;;;;;2.20;2.10;;;;;;;;;;6256460;28;20320;-69
2023/11/28 01:10:57;;;;;;;2.10;2.00;;;;;;;;;;6256597;28;20298;-70
2023/11/28 01:14:00;;;;;;;2.33;2.17;;;;;;;;;;6259667;28;20325;-69
2023/11/28 01:17:07;;;;;;;2.03;1.97;;;;;;;;;;6258294;28;20317;-70
2023/11/28 01:20:12;;;;;;;2.00;1.90;;;;;;;;;;6245530;28;20580;-70
2023/11/28 01:23:17;;;;;;;2.10;2.00;;;;;;;;;;6255373;28;20297;-70
2023/11/28 01:26:21;;;;;;;2.07;2.07;;;;;;;;;;6254202;28;20318;-69
2023/11/28 01:29:25;;;;;;;2.10;2.00;;;;;;;;;;6256498;28;20329;-68
2023/11/28 01:32:30;;;;;;;2.40;2.30;;;;;;;;;;6254481;28;20294;-69
2023/11/28 01:35:34;;;;;;;1.80;1.70;;;;;;;;;;6253425;28;20299;-70
2023/11/28 01:38:38;;;;;;;2.17;2.17;;;;;;;;;;6254204;28;20701;-69
2023/11/28 01:41:42;;;;;;;2.00;1.90;;;;;;;;;;6255470;28;20302;-70
2023/11/28 01:44:46;;;;;;;2.27;2.17;;;;;;;;;;6255727;28;20291;-70
2023/11/28 01:47:53;;;;;;;2.00;2.00;;;;;;;;;;6254753;28;20306;-69
2023/11/28 01:50:57;;;;;;;2.77;2.07;;;;;;;;;;6250817;28;20295;-70
2023/11/28 01:54:03;;;;;;;2.00;2.00;;;;;;;;;;6236849;28;20235;-70
2023/11/28 01:57:07;;;;;;;2.60;2.00;;;;;;;;;;6231240;28;20314;-69
2023/11/28 02:00:12;;;;;;;1.93;1.90;;;;;;;;;;6238918;28;20303;-69
2023/11/28 02:03:17;;;;;;;2.37;2.23;;;;;;;;;;6230881;28;20333;-69
2023/11/28 02:06:21;;;;;;;2.80;2.70;;;;;;;;;;6230495;28;20302;-69
2023/11/28 02:09:25;;;;;;;3.00;2.90;;;;;;;;;;6230672;28;20488;-71
2023/11/28 02:12:29;;;;;;;3.47;2.87;;;;;;;;;;6247529;28;20302;-69
2023/11/28 02:15:40;;;;;;;2.67;2.57;;;;;;;;;;6254582;28;20294;-69
2023/11/28 02:18:45;;;;;;;3.07;2.87;;;;;;;;;;6254089;28;20302;-71
2023/11/28 02:21:49;;;;;;;2.70;2.60;;;;;;;;;;6250065;28;20310;-70
2023/11/28 02:24:55;;;;;;;2.50;2.40;;;;;;;;;;6255724;28;20300;-68
2023/11/28 02:28:01;;;;;;;2.23;2.20;;;;;;;;;;6243865;28;20264;-69
2023/11/28 02:31:06;;;;;;;2.20;2.00;;;;;;;;;;6255501;28;20295;-70
2023/11/28 02:34:10;;;;;;;2.30;2.30;;;;;;;;;;6253259;28;20243;-70
2023/11/28 02:37:13;;;;;;;2.50;2.50;;;;;;;;;;6253692;28;20305;-69
2023/11/28 02:40:17;;;;;;;2.10;1.97;;;;;;;;;;6255365;28;20302;-70
2023/11/28 02:43:23;;;;;;;2.23;2.13;;;;;;;;;;6270003;28;20490;-69
2023/11/28 02:46:27;;;;;;;2.37;2.37;;;;;;;;;;6255095;28;20311;-70
2023/11/28 02:49:31;;;;;;;2.73;2.40;;;;;;;;;;6255102;28;20298;-69
2023/11/28 02:52:34;;;;;;;2.33;2.30;;;;;;;;;;6269493;28;20502;-69
2023/11/28 02:55:38;;;;;;;2.67;2.47;;;;;;;;;;6254035;28;20310;-71
2023/11/28 02:58:44;;;;;;;3.73;2.30;;;;;;;;;;6202675;28;20486;-69
2023/11/28 03:01:53;;;;;;;1.83;1.83;;;;;;;;;;6227127;28;20609;-69
2023/11/28 03:04:57;;;;;;;2.40;2.20;;;;;;;;;;6230676;28;20296;-69
2023/11/28 03:08:01;;;;;;;4.43;2.30;;;;;;;;;;6245022;28;20299;-69
2023/11/28 03:11:06;;;;;;;2.47;2.37;;;;;;;;;;6255260;28;20298;-69
2023/11/28 03:14:11;;;;;;;3.50;2.10;;;;;;;;;;6278080;28;20303;-69
2023/11/28 03:17:15;;;;;;;2.70;2.60;;;;;;;;;;6278102;28;20303;-69
2023/11/28 03:20:19;;;;;;;2.40;2.30;;;;;;;;;;6279664;28;20305;-70
2023/11/28 03:23:23;;;;;;;2.40;2.20;;;;;;;;;;6278739;28;20496;-68
2023/11/28 03:26:26;;;;;;;2.57;2.47;;;;;;;;;;6276914;28;20490;-68
2023/11/28 03:29:32;;;;;;;2.30;2.30;;;;;;;;;;6278684;28;20306;-68
2023/11/28 03:32:36;;;;;;;2.77;2.57;;;;;;;;;;6254173;28;20295;-69
2023/11/28 03:35:40;;;;;;;2.93;2.73;;;;;;;;;;6256989;28;20302;-68
2023/11/28 03:38:46;;;;;;;2.47;2.37;;;;;;;;;;6283389;28;20471;-70
2023/11/28 03:41:52;;;;;;;2.40;2.30;;;;;;;;;;6282143;28;20450;-69
2023/11/28 03:44:57;;;;;;;2.33;2.33;;;;;;;;;;6284038;28;20301;-69
2023/11/28 03:48:01;;;;;;;3.10;2.90;;;;;;;;;;6278616;28;20318;-69
2023/11/28 03:51:05;;;;;;;3.13;2.57;;;;;;;;;;6257715;28;20306;-69
2023/11/28 03:54:09;;;;;;;2.63;2.53;;;;;;;;;;6258755;28;20301;-68
2023/11/28 03:57:14;;;;;;;2.20;2.20;;;;;;;;;;6256752;28;20295;-69
2023/11/28 04:00:19;;;;;;;2.70;2.50;;;;;;;;;;6242390;28;20285;-68
2023/11/28 04:03:23;;;;;;;2.50;2.30;;;;;;;;;;6218513;28;20287;-69
2023/11/28 04:06:27;;;;;;;2.60;2.50;;;;;;;;;;6254735;28;20623;-70
2023/11/28 04:09:31;;;;;;;2.23;2.20;;;;;;;;;;6257464;28;20534;-68
2023/11/28 04:12:35;;;;;;;3.03;2.77;;;;;;;;;;6265927;28;20611;-69
2023/11/28 04:15:40;;;;;;;2.67;2.57;;;;;;;;;;6262090;28;20319;-69
2023/11/28 04:18:47;;;;;;;2.53;2.43;;;;;;;;;;6279940;28;20294;-68
2023/11/28 04:21:51;;;;;;;3.97;3.00;;;;;;;;;;6256869;28;20290;-70
2023/11/28 04:24:56;;;;;;;2.43;2.43;;;;;;;;;;6256528;28;20487;-69
2023/11/28 04:28:00;;;;;;;3.30;3.00;;;;;;;;;;6258173;28;20335;-70
2023/11/28 04:31:05;;;;;;;2.93;2.80;;;;;;;;;;6258404;28;20299;-68
2023/11/28 04:34:12;;;;;;;3.03;2.80;;;;;;;;;;6254549;28;20867;-71
2023/11/28 04:37:16;;;;;;;2.90;2.70;;;;;;;;;;6270018;28;20306;-68
2023/11/28 04:40:23;;;;;;;2.77;2.67;;;;;;;;;;6279595;28;20498;-69
2023/11/28 04:43:27;;;;;;;2.80;2.60;;;;;;;;;;6280553;28;20617;-69
2023/11/28 04:46:33;;;;;;;3.20;2.90;;;;;;;;;;6272161;28;20584;-70
2023/11/28 04:49:37;;;;;;;2.73;2.67;;;;;;;;;;6239920;28;20327;-69
2023/11/28 04:52:41;;;;;;;2.90;2.77;;;;;;;;;;6239841;28;20322;-69
2023/11/28 04:55:45;;;;;;;2.53;2.43;;;;;;;;;;6254209;28;20332;-68
2023/11/28 04:58:50;;;;;;;2.63;2.53;;;;;;;;;;6271892;28;20307;-69
2023/11/28 05:01:56;;;;;;;2.63;2.50;;;;;;;;;;6255663;28;20290;-71
2023/11/28 05:05:02;;;;;;;2.63;2.53;;;;;;;;;;6255767;28;20303;-70
2023/11/28 05:08:06;;;;;;;2.90;2.53;;;;;;;;;;6256009;28;20307;-70
2023/11/28 05:11:11;;;;;;;5.37;3.13;;;;;;;;;;6253830;28;20303;-71
2023/11/28 05:14:15;;;;;;;2.80;2.60;;;;;;;;;;6261678;28;20531;-69
2023/11/28 05:17:20;;;;;;;2.70;2.50;;;;;;;;;;6261369;28;20318;-70
2023/11/28 05:20:24;;;;;;;3.23;2.40;;;;;;;;;;6263393;28;20601;-69
2023/11/28 05:23:29;;;;;;;2.50;2.40;;;;;;;;;;6279678;28;20294;-70
2023/11/28 05:26:33;;;;;;;2.53;2.33;;;;;;;;;;6262179;28;20634;-68
2023/11/28 05:29:37;;;;;;;2.80;2.60;;;;;;;;;;6253946;28;20319;-68
2023/11/28 05:32:42;;;;;;;3.07;2.40;;;;;;;;;;6281278;28;20374;-68
2023/11/28 05:35:46;;;;;;;2.50;2.30;;;;;;;;;;6254174;28;20242;-70
2023/11/28 05:38:50;;;;;;;5.20;2.10;;;;;;;;;;6256307;28;20442;-70
2023/11/28 05:41:54;;;;;;;2.37;2.27;;;;;;;;;;6281233;28;20295;-68
2023/11/28 05:44:58;;;;;;;3.53;2.13;;;;;;;;;;6281022;28;20295;-70
2023/11/28 05:48:06;;;;;;;2.97;2.30;;;;;;;;;;6266470;28;20318;-69
2023/11/28 05:51:10;;;;;;;3.20;2.37;;;;;;;;;;6254605;28;20299;-69
2023/11/28 05:54:18;;;;;;;3.80;2.20;;;;;;;;;;6254966;28;20283;-69
2023/11/28 05:57:23;;;;;;;3.13;1.97;;;;;;;;;;6254751;28;20239;-70
2023/11/28 06:00:27;;;;;;;1.90;1.90;;;;;;;;;;6254453;28;20304;-73
2023/11/28 06:03:32;;;;;;;2.27;2.17;;;;;;;;;;6255261;28;20291;-69
2023/11/28 06:06:38;;;;;;;6.27;2.57;;;;;;;;;;6254665;28;20609;-68
2023/11/28 06:09:42;;;;;;;2.33;2.20;;;;;;;;;;6255401;28;20394;-70
2023/11/28 06:12:46;;;;;;;2.40;2.20;;;;;;;;;;6279449;28;20291;-69
2023/11/28 06:15:50;;;;;;;2.30;2.30;;;;;;;;;;6279804;28;20311;-69
2023/11/28 06:18:55;;;;;;;4.93;2.60;;;;;;;;;;6278439;28;20603;-70
2023/11/28 06:21:59;;;;;;;2.33;2.13;;;;;;;;;;6280271;28;20510;-68
2023/11/28 06:25:04;;;;;;;2.60;2.47;;;;;;;;;;6279603;28;20298;-70
2023/11/28 06:28:08;;;;;;;2.10;2.00;;;;;;;;;;6279764;28;20294;-70
2023/11/28 06:31:12;;;;;;;4.33;2.20;;;;;;;;;;6279829;28;20313;-68
2023/11/28 06:34:18;;;;;;;3.67;2.33;;;;;;;;;;6277868;28;20622;-69
2023/11/28 06:37:22;;;;;;;2.73;1.83;;;;;;;;;;6278949;28;20552;-70
2023/11/28 06:40:26;;;;;;;2.17;2.07;;;;;;;;;;6279920;28;20303;-70
2023/11/28 06:43:30;;;;;;;2.10;2.00;;;;;;;;;;6279727;28;20635;-69
2023/11/28 06:46:34;;;;;;;2.57;1.63;;;;;;;;;;6279972;28;20294;-69
2023/11/28 06:49:39;;;;;;;3.80;1.53;;;;;;;;;;6261506;28;20479;-70
2023/11/28 06:52:44;;;;;;;2.23;2.03;;;;;;;;;;6246876;28;20380;-71
2023/11/28 06:55:48;;;;;;;1.60;1.57;;;;;;;;;;6254637;28;20594;-69
2023/11/28 06:58:52;;;;;;;1.50;1.50;;;;;;;;;;6227541;28;20318;-71
2023/11/28 07:01:56;;;;;;;1.63;1.60;;;;;;;;;;6262688;28;20303;-67
2023/11/28 07:05:02;;;;;;;2.27;1.80;;;;;;;;;;6233409;28;20496;-69
2023/11/28 07:08:06;;;;;;;2.17;1.60;;;;;;;;;;6230375;28;20312;-68
2023/11/28 07:11:16;;;;;;;2.00;1.53;;;;;;;;;;6247158;28;20323;-68
2023/11/28 07:14:21;;;;;;;1.43;1.43;;;;;;;;;;6234701;28;20314;-69
2023/11/28 07:17:26;;;;;;;1.73;1.63;;;;;;;;;;6234643;28;20300;-69
2023/11/28 07:20:31;;;;;;;2.40;1.70;;;;;;;;;;6234725;28;20292;-69
2023/11/28 07:23:35;;;;;;;1.97;1.63;;;;;;;;;;6234324;28;20300;-69
2023/11/28 07:26:39;;;;;;;2.10;1.50;;;;;;;;;;6234047;28;20304;-70
2023/11/28 07:29:42;;;;;;;2.03;1.93;;;;;;;;;;6234123;28;20308;-68
2023/11/28 07:32:46;;;;;;;1.77;1.73;;;;;;;;;;6234846;28;20291;-68
2023/11/28 07:35:51;;;;;;;1.60;1.60;;;;;;;;;;6233780;28;20487;-69
2023/11/28 07:38:55;;;;;;;1.67;1.57;;;;;;;;;;6234311;28;20307;-69
2023/11/28 07:41:59;;;;;;;1.40;1.40;;;;;;;;;;6234300;28;20300;-68
2023/11/28 07:45:06;;;;;;;1.50;1.50;;;;;;;;;;6234153;28;20468;-68
2023/11/28 07:48:10;;;;;;;1.33;1.30;;;;;;;;;;6233105;28;20455;-68
2023/11/28 07:51:15;;;;;;;1.50;1.30;;;;;;;;;;6234150;28;20288;-68
2023/11/28 07:54:19;;;;;;;1.40;1.33;;;;;;;;;;6233350;28;20300;-70
2023/11/28 07:57:23;;;;;;;1.20;1.20;;;;;;;;;;6234382;28;20248;-68
2023/11/28 08:00:29;;;;;;;1.40;1.23;;;;;;;;;;6250618;28;20291;-71
2023/11/28 08:03:33;;;;;;;1.67;1.30;;;;;;;;;;6252101;28;20284;-69
2023/11/28 08:06:40;;;;;;;1.37;1.30;;;;;;;;;;6225569;28;20299;-70
2023/11/28 08:09:44;;;;;;;1.33;1.33;;;;;;;;;;6209432;28;20337;-70
2023/11/28 08:12:48;;;;;;;1.50;1.40;;;;;;;;;;6283036;28;20302;-70
2023/11/28 08:15:52;;;;;;;1.50;1.50;;;;;;;;;;6282658;28;20314;-68
2023/11/28 08:18:56;;;;;;;1.47;1.47;;;;;;;;;;6282122;28;20357;-72
2023/11/28 08:22:01;;;;;;;2.07;1.30;;;;;;;;;;6260525;28;20300;-69
2023/11/28 08:25:05;;;;;;;3.30;1.47;;;;;;;;;;6250797;28;20295;-68
2023/11/28 08:28:09;;;;;;;1.60;1.60;;;;;;;;;;6257811;28;20298;-68
2023/11/28 08:31:13;;;;;;;1.90;1.90;;;;;;;;;;6257898;28;20299;-69
2023/11/28 08:34:17;;;;;;;2.13;2.03;;;;;;;;;;6255920;28;20306;-70
2023/11/28 08:37:22;;;;;;;1.50;1.50;;;;;;;;;;6258136;28;20318;-68
2023/11/28 08:40:26;;;;;;;1.43;1.43;;;;;;;;;;6257267;28;20299;-69
2023/11/28 08:43:30;;;;;;;1.67;1.60;;;;;;;;;;6257594;28;20242;-70
2023/11/28 08:46:35;;;;;;;1.77;1.67;;;;;;;;;;6257746;28;20304;-70
2023/11/28 08:49:39;;;;;;;1.70;1.60;;;;;;;;;;6257483;28;20296;-68
2023/11/28 08:52:44;;;;;;;1.77;1.67;;;;;;;;;;6257018;28;20315;-67
2023/11/28 08:55:48;;;;;;;1.60;1.60;;;;;;;;;;6257228;28;20296;-71
2023/11/28 08:58:54;;;;;;;1.70;1.70;;;;;;;;;;6255338;28;20499;-70
2023/11/28 09:01:57;;;;;;;2.80;1.73;;;;;;;;;;6257340;28;20388;-69
2023/11/28 09:05:02;;;;;;;1.80;1.80;;;;;;;;;;6256345;28;20552;-69
2023/11/28 09:08:07;;;;;;;2.03;1.90;;;;;;;;;;6257299;28;20292;-68
2023/11/28 09:11:13;;;;;;;2.50;2.40;;;;;;;;;;6267416;28;20303;-70
2023/11/28 09:14:17;;;;;;;2.20;2.10;;;;;;;;;;6281053;28;20308;-69
2023/11/28 09:17:21;;;;;;;2.47;1.80;;;;;;;;;;6281471;28;20310;-68
2023/11/28 09:20:26;;;;;;;2.00;2.00;;;;;;;;;;6281108;28;20309;-69
2023/11/28 09:23:31;;;;;;;2.83;2.10;;;;;;;;;;6281037;28;20386;-69
2023/11/28 09:26:34;;;;;;;2.03;1.93;;;;;;;;;;6281315;28;20318;-70
2023/11/28 09:29:39;;;;;;;3.00;2.00;;;;;;;;;;6270719;28;20483;-69
2023/11/28 09:32:43;;;;;;;2.30;2.20;;;;;;;;;;6280500;28;20332;-68
2023/11/28 09:35:47;;;;;;;2.80;2.20;;;;;;;;;;6279181;28;20291;-70
2023/11/28 09:38:54;;;;;;;2.27;2.17;;;;;;;;;;6280421;28;20271;-68
2023/11/28 09:41:59;;;;;;;1.83;1.73;;;;;;;;;;6281137;28;20293;-69
2023/11/28 09:45:05;;;;;;;2.10;2.00;;;;;;;;;;6280374;28;20297;-69
2023/11/28 09:48:11;;;;;;;3.13;2.07;;;;;;;;;;6280761;28;20289;-70
2023/11/28 09:51:21;;;;;;;2.30;2.20;;;;;;;;;;6279747;28;20293;-69
2023/11/28 09:54:28;;;;;;;1.77;1.77;;;;;;;;;;6279885;28;20310;-68
2023/11/28 09:57:33;;;;;;;1.90;1.90;;;;;;;;;;6280682;28;20297;-70
2023/11/28 10:00:37;;;;;;;2.10;2.00;;;;;;;;;;6262370;28;20595;-69
2023/11/28 10:03:40;;;;;;;2.50;2.30;;;;;;;;;;6255383;28;20318;-70
2023/11/28 10:06:46;;;;;;;2.70;2.50;;;;;;;;;;6255371;28;20313;-70
2023/11/28 10:09:54;;;;;;;3.50;2.20;;;;;;;;;;6256043;28;20294;-70
2023/11/28 10:12:58;;;;;;;2.60;2.50;;;;;;;;;;6280368;28;20293;-69
2023/11/28 10:16:02;;;;;;;2.23;2.07;;;;;;;;;;6279010;28;20700;-68
2023/11/28 10:19:07;;;;;;;2.20;2.10;;;;;;;;;;6271275;28;20236;-68
2023/11/28 10:22:12;;;;;;;2.00;2.00;;;;;;;;;;6280551;28;20477;-69
2023/11/28 10:25:18;;;;;;;2.17;2.10;;;;;;;;;;6279611;28;20301;-69
2023/11/28 10:28:22;;;;;;;2.97;2.37;;;;;;;;;;6279797;28;20289;-69
2023/11/28 10:31:26;;;;;;;2.07;2.00;;;;;;;;;;6280208;28;20320;-72
2023/11/28 10:34:31;;;;;;;2.10;2.00;;;;;;;;;;6278772;28;20385;-71
2023/11/28 10:37:36;;;;;;;2.27;1.90;;;;;;;;;;6280737;28;20486;-70
2023/11/28 10:40:43;;;;;;;2.00;2.00;;;;;;;;;;6279520;28;20320;-68
2023/11/28 10:43:47;;;;;;;2.50;2.20;;;;;;;;;;6282242;28;20632;-68
2023/11/28 10:46:54;;;;;;;2.03;2.03;;;;;;;;;;6285207;28;20624;-71
2023/11/28 10:49:58;;;;;;;2.00;1.90;;;;;;;;;;6284799;28;20323;-69
2023/11/28 10:53:04;;;;;;;2.00;1.87;;;;;;;;;;6280060;28;20535;-71
2023/11/28 10:56:10;;;;;;;1.77;1.77;;;;;;;;;;6253288;28;20318;-69
2023/11/28 10:59:19;;;;;;;3.33;1.80;;;;;;;;;;6259681;28;20298;-68
2023/11/28 11:02:23;;;;;;;1.90;1.90;;;;;;;;;;6260457;28;20291;-70
2023/11/28 11:05:29;;;;;;;1.97;1.87;;;;;;;;;;6259966;28;20617;-72
2023/11/28 11:08:33;;;;;;;2.00;1.90;;;;;;;;;;6259531;28;20586;-71
2023/11/28 11:11:39;;;;;;;1.80;1.80;;;;;;;;;;6274895;28;20291;-70
2023/11/28 11:14:48;;;;;;;3.07;1.67;;;;;;;;;;6284104;28;20294;-69
2023/11/28 11:18:01;;;;;;;2.03;1.93;;;;;;;;;;6284926;28;20303;-72
2023/11/28 11:21:19;;;;;;;1.90;1.80;;;;;;;;;;6284050;28;20300;-68
2023/11/28 11:24:22;;;;;;;1.90;1.80;;;;;;;;;;6284322;28;20296;-69
2023/11/28 11:27:28;;;;;;;1.80;1.80;;;;;;;;;;6284131;28;20424;-70
2023/11/28 11:30:34;;;;;;;1.53;1.53;;;;;;;;;;6283045;28;20301;-72
2023/11/28 11:33:39;;;;;;;1.80;1.70;;;;;;;;;;6282047;28;20498;-71
2023/11/28 11:36:42;;;;;;;1.70;1.60;;;;;;;;;;6283697;28;20315;-69
2023/11/28 11:39:47;;;;;;;1.60;1.60;;;;;;;;;;6283107;28;20427;-68
2023/11/28 11:42:53;;;;;;;1.87;1.87;;;;;;;;;;6272345;28;20297;-70
2023/11/28 11:46:07;;;;;;;2.17;2.07;;;;;;;;;;6283589;28;20620;-68
2023/11/28 11:49:11;;;;;;;1.80;1.70;;;;;;;;;;6283347;28;20313;-68
2023/11/28 11:52:15;;;;;;;1.93;1.83;;;;;;;;;;6283414;28;20297;-68
2023/11/28 11:55:20;;;;;;;1.90;1.90;;;;;;;;;;6282089;28;20286;-69
2023/11/28 11:58:25;;;;;;;1.90;1.80;;;;;;;;;;6283153;28;20303;-70
2023/11/28 12:01:30;;;;;;;4.37;1.80;;;;;;;;;;6251093;28;20322;-69
2023/11/28 12:04:34;;;;;;;2.10;1.90;;;;;;;;;;6258144;28;20473;-70
2023/11/28 12:07:40;;;;;;;1.80;1.80;;;;;;;;;;6258817;28;20301;-71
2023/11/28 12:10:44;;;;;;;1.80;1.70;;;;;;;;;;6265720;28;20297;-68
2023/11/28 12:13:49;;;;;;;1.60;1.60;;;;;;;;;;6281433;28;20305;-67
2023/11/28 12:16:53;;;;;;;1.70;1.70;;;;;;;;;;6282975;28;20304;-69
2023/11/28 12:19:57;;;;;;;1.80;1.70;;;;;;;;;;6282747;28;20348;-68
2023/11/28 12:23:01;;;;;;;1.70;1.70;;;;;;;;;;6283038;28;20323;-68
2023/11/28 12:26:06;;;;;;;1.80;1.70;;;;;;;;;;6282080;28;20296;-68
2023/11/28 12:29:12;;;;;;;2.27;1.70;;;;;;;;;;6282521;28;20292;-68
2023/11/28 12:32:17;;;;;;;1.70;1.70;;;;;;;;;;6282589;28;20289;-69
2023/11/28 12:35:21;;;;;;;6.53;2.13;;;;;;;;;;6280014;28;20284;-67
2023/11/28 12:38:24;;;;;;;2.00;1.90;;;;;;;;;;6255955;28;20295;-68
2023/11/28 12:41:36;;;;;;;2.00;1.90;;;;;;;;;;6242568;28;20252;-69
2023/11/28 12:44:42;;;;;;;1.90;1.77;;;;;;;;;;6256976;28;20295;-69
2023/11/28 12:47:47;;;;;;;1.53;1.53;;;;;;;;;;6233095;28;20301;-69
2023/11/28 12:50:52;;;;;;;1.67;1.63;;;;;;;;;;6234924;28;20325;-69
2023/11/28 12:54:01;;;;;;;1.57;1.57;;;;;;;;;;6257226;28;20231;-68
2023/11/28 12:57:05;;;;;;;1.87;1.77;;;;;;;;;;6259172;28;20351;-69
2023/11/28 13:00:12;;;;;;;1.63;1.60;;;;;;;;;;6255939;28;20295;-69
2023/11/28 13:03:16;;;;;;;1.77;1.67;;;;;;;;;;6256846;28;20303;-68
2023/11/28 13:06:20;;;;;;;2.00;1.90;;;;;;;;;;6255548;28;20288;-70
2023/11/28 13:09:24;;;;;;;1.63;1.63;;;;;;;;;;6256670;28;20303;-69
2023/11/28 13:12:27;;;;;;;1.87;1.77;;;;;;;;;;6235059;28;20333;-68
2023/11/28 13:15:34;;;;;;;1.57;1.57;;;;;;;;;;6232240;28;20329;-69
2023/11/28 13:18:37;;;;;;;1.80;1.70;;;;;;;;;;6232474;28;20297;-68
2023/11/28 13:21:41;;;;;;;1.67;1.60;;;;;;;;;;6232709;28;20297;-68
2023/11/28 13:24:46;;;;;;;1.83;1.73;;;;;;;;;;6232032;28;20556;-69
2023/11/28 13:27:49;;;;;;;6.33;2.23;;;;;;;;;;6231988;28;20328;-69
2023/11/28 13:30:56;;;;;;;1.80;1.80;;;;;;;;;;6231775;28;20387;-69
2023/11/28 13:34:01;;;;;;;2.00;1.90;;;;;;;;;;6229883;28;20300;-69
2023/11/28 13:37:06;;;;;;;1.97;1.97;;;;;;;;;;6232087;28;20302;-68
2023/11/28 13:40:12;;;;;;;3.47;1.60;;;;;;;;;;6231114;28;20305;-69
2023/11/28 13:43:16;;;;;;;2.00;1.90;;;;;;;;;;6231726;28;20314;-68
2023/11/28 13:46:22;;;;;;;1.67;1.67;;;;;;;;;;6231383;28;20296;-68
2023/11/28 13:49:26;;;;;;;1.80;1.63;;;;;;;;;;6231168;28;20297;-68
2023/11/28 13:52:29;;;;;;;4.53;1.80;;;;;;;;;;6247947;28;20310;-69
2023/11/28 13:55:33;;;;;;;1.87;1.87;;;;;;;;;;6252693;28;20596;-68
2023/11/28 13:58:37;;;;;;;1.73;1.73;;;;;;;;;;6228738;28;20290;-69
2023/11/28 14:01:42;;;;;;;1.53;1.53;;;;;;;;;;6231521;28;20304;-70
2023/11/28 14:04:46;;;;;;;1.90;1.90;;;;;;;;;;6238073;28;20345;-68
2023/11/28 14:07:50;;;;;;;2.00;1.90;;;;;;;;;;6231347;28;20321;-69
2023/11/28 14:10:54;;;;;;;1.97;1.97;;;;;;;;;;6224047;28;20303;-70
2023/11/28 14:13:57;;;;;;;2.10;2.00;;;;;;;;;;6211792;28;20304;-69
2023/11/28 14:17:03;;;;;;;1.97;1.87;;;;;;;;;;6255859;28;20305;-67
2023/11/28 14:20:08;;;;;;;3.50;1.80;;;;;;;;;;6255464;28;20303;-70
2023/11/28 14:23:13;;;;;;;3.33;1.80;;;;;;;;;;6255975;28;20580;-70
2023/11/28 14:26:17;;;;;;;1.90;1.70;;;;;;;;;;6255123;28;20304;-69
2023/11/28 14:29:22;;;;;;;2.00;1.97;;;;;;;;;;6255452;28;20234;-69
2023/11/28 14:32:27;;;;;;;1.70;1.70;;;;;;;;;;6255680;28;20549;-69
2023/11/28 14:35:31;;;;;;;2.10;2.00;;;;;;;;;;6252048;28;20304;-69
2023/11/28 14:38:35;;;;;;;2.00;2.00;;;;;;;;;;6254633;28;20296;-69
2023/11/28 14:41:39;;;;;;;2.10;2.10;;;;;;;;;;6254651;28;20628;-69
2023/11/28 14:44:43;;;;;;;2.03;1.97;;;;;;;;;;6254977;28;20303;-69
2023/11/28 14:47:50;;;;;;;1.63;1.63;;;;;;;;;;6255093;28;20305;-69
2023/11/28 14:50:54;;;;;;;3.17;1.90;;;;;;;;;;6250726;28;20305;-68
2023/11/28 14:53:58;;;;;;;3.20;2.17;;;;;;;;;;6254660;28;20301;-70
2023/11/28 14:57:02;;;;;;;2.07;1.97;;;;;;;;;;6255309;28;20296;-69
2023/11/28 15:00:11;;;;;;;2.67;2.10;;;;;;;;;;6254587;28;20301;-69
2023/11/28 15:03:16;;;;;;;1.87;1.87;;;;;;;;;;6255038;28;20293;-70
2023/11/28 15:06:20;;;;;;;2.57;2.30;;;;;;;;;;6254163;28;20300;-68
2023/11/28 15:09:24;;;;;;;3.43;1.87;;;;;;;;;;6253039;28;20288;-70
2023/11/28 15:12:27;;;;;;;1.73;1.73;;;;;;;;;;6226118;28;20297;-69
2023/11/28 15:15:31;;;;;;;2.40;1.90;;;;;;;;;;6228067;28;20309;-70
2023/11/28 15:18:36;;;;;;;2.40;2.30;;;;;;;;;;6254586;28;20292;-70
2023/11/28 15:21:40;;;;;;;2.33;2.23;;;;;;;;;;6254868;28;20320;-69
2023/11/28 15:24:48;;;;;;;2.47;2.37;;;;;;;;;;6254306;28;20293;-70
2023/11/28 15:27:52;;;;;;;2.53;2.43;;;;;;;;;;6254517;28;20306;-69
2023/11/28 15:30:56;;;;;;;1.97;1.97;;;;;;;;;;6256847;28;20324;-69
2023/11/28 15:34:01;;;;;;;2.60;2.47;;;;;;;;;;6256953;28;20312;-69
2023/11/28 15:37:05;;;;;;;3.07;2.50;;;;;;;;;;6259562;28;20312;-69
2023/11/28 15:40:11;;;;;;;2.37;2.27;;;;;;;;;;6258322;28;20298;-69
2023/11/28 15:43:14;;;;;;;2.37;2.30;;;;;;;;;;6258695;28;20293;-70
2023/11/28 15:46:18;;;;;;;3.23;2.50;;;;;;;;;;6258246;28;20309;-69
2023/11/28 15:49:23;;;;;;;2.23;2.20;;;;;;;;;;6258718;28;20313;-71
2023/11/28 15:52:46;;;;;;;2.80;2.60;;;;;;;;;;6247998;28;20303;-68
2023/11/28 15:55:50;;;;;;;2.33;2.23;;;;;;;;;;6252964;28;20485;-70
2023/11/28 15:58:54;;;;;;;2.27;2.17;;;;;;;;;;6258592;28;20304;-70
2023/11/28 16:01:58;;;;;;;2.50;2.30;;;;;;;;;;6258256;28;20494;-69
2023/11/28 16:05:04;;;;;;;2.60;2.50;;;;;;;;;;6257620;28;20298;-69
2023/11/28 16:08:08;;;;;;;2.80;2.57;;;;;;;;;;6258455;28;20286;-68
2023/11/28 16:11:13;;;;;;;2.90;2.70;;;;;;;;;;6246213;28;20369;-70
2023/11/28 16:14:17;;;;;;;2.90;2.27;;;;;;;;;;6212888;28;20314;-69
2023/11/28 16:17:21;;;;;;;2.37;2.37;;;;;;;;;;6258096;28;20300;-70
2023/11/28 16:20:27;;;;;;;2.70;2.50;;;;;;;;;;6257948;28;20306;-69
2023/11/28 16:23:35;;;;;;;2.80;2.60;;;;;;;;;;6257896;28;20302;-68
2023/11/28 16:26:40;;;;;;;2.93;2.73;;;;;;;;;;6257592;28;20309;-69
2023/11/28 16:29:45;;;;;;;2.80;2.70;;;;;;;;;;6257328;28;20292;-70
2023/11/28 16:32:49;;;;;;;2.97;2.77;;;;;;;;;;6257352;28;20414;-74
2023/11/28 16:36:01;;;;;;;2.40;2.30;;;;;;;;;;6263442;28;20314;-69
2023/11/28 16:39:06;;;;;;;2.50;2.40;;;;;;;;;;6246273;28;20298;-69
2023/11/28 16:42:12;;;;;;;2.93;2.83;;;;;;;;;;6221760;28;20310;-69
2023/11/28 16:45:16;;;;;;;3.60;2.80;;;;;;;;;;6240741;28;20286;-69
2023/11/28 16:48:21;;;;;;;3.57;2.53;;;;;;;;;;6257631;28;20282;-69
2023/11/28 16:51:27;;;;;;;3.00;2.80;;;;;;;;;;6257882;28;20314;-69
2023/11/28 16:54:30;;;;;;;2.93;2.83;;;;;;;;;;6257244;28;20307;-68
2023/11/28 16:57:34;;;;;;;2.93;2.73;;;;;;;;;;6258400;28;20298;-70
2023/11/28 17:00:38;;;;;;;2.87;2.73;;;;;;;;;;6257387;28;20554;-69
2023/11/28 17:03:42;;;;;;;3.37;3.10;;;;;;;;;;6257187;28;20297;-69
2023/11/28 17:06:47;;;;;;;3.37;3.17;;;;;;;;;;6258545;28;20330;-70
2023/11/28 17:09:51;;;;;;;3.53;3.33;;;;;;;;;;6257196;28;20550;-69
2023/11/28 17:12:55;;;;;;;2.67;2.57;;;;;;;;;;6262675;28;20371;-68
2023/11/28 17:15:59;;;;;;;3.23;3.03;;;;;;;;;;6207730;28;20306;-70
2023/11/28 17:19:03;;;;;;;4.03;3.33;;;;;;;;;;6207637;28;20308;-70
2023/11/28 17:22:08;;;;;;;3.97;3.67;;;;;;;;;;6228002;28;20301;-70
2023/11/28 17:25:12;;;;;;;7.53;3.10;;;;;;;;;;6229574;28;20284;-68
2023/11/28 17:28:16;;;;;;;3.43;3.10;;;;;;;;;;6227955;28;20303;-69
2023/11/28 17:31:21;;;;;;;3.27;3.07;;;;;;;;;;6231348;28;20298;-70
2023/11/28 17:34:26;;;;;;;4.90;3.23;;;;;;;;;;6229802;28;20458;-70
2023/11/28 17:37:31;;;;;;;3.90;3.60;;;;;;;;;;6232343;28;20290;-68
2023/11/28 17:40:35;;;;;;;3.87;3.40;;;;;;;;;;6231638;28;20299;-71
2023/11/28 17:43:39;;;;;;;3.20;3.00;;;;;;;;;;6231521;28;20311;-67
2023/11/28 17:46:43;;;;;;;3.90;3.50;;;;;;;;;;6231796;28;20295;-70
2023/11/28 17:49:46;;;;;;;4.30;3.87;;;;;;;;;;6231092;28;20498;-69
2023/11/28 17:52:51;;;;;;;4.50;3.57;;;;;;;;;;6250102;28;20861;-68
2023/11/28 17:55:55;;;;;;;3.90;3.30;;;;;;;;;;6246725;28;20303;-68
2023/11/28 17:58:59;;;;;;;4.50;3.70;;;;;;;;;;6211752;28;20302;-70
2023/11/28 18:02:03;;;;;;;4.03;3.63;;;;;;;;;;6224488;28;20619;-70
2023/11/28 18:05:16;;;;;;;5.63;4.03;;;;;;;;;;6208371;28;20312;-69
2023/11/28 18:08:22;;;;;;;4.03;3.70;;;;;;;;;;6230969;28;20493;-68
2023/11/28 18:11:25;;;;;;;6.07;4.85;;;;;;;;;;6254621;28;20520;-69
2023/11/28 18:14:30;;;;;;;4.63;4.33;;;;;;;;;;6262597;28;20299;-68
2023/11/28 18:17:33;;;;;;;3.90;3.70;;;;;;;;;;6280169;28;20294;-69
2023/11/28 18:20:38;;;;;;;5.37;4.03;;;;;;;;;;6254975;28;20567;-69
2023/11/28 18:23:44;;;;;;;4.07;3.77;;;;;;;;;;6256108;28;20307;-69
2023/11/28 18:26:48;;;;;;;5.30;3.93;;;;;;;;;;6256414;28;20302;-68